createdAt,value
2019-03-11T00:02:03.340Z,5.40
2019-03-11T00:04:08.475Z,5.40
2019-03-11T00:06:14.473Z,5.40
2019-03-11T00:08:19.134Z,5.50
2019-03-11T00:10:23.605Z,5.50
2019-03-11T00:12:28.207Z,5.50
2019-03-11T00:14:53.580Z,5.50
2019-03-11T00:16:58.104Z,5.50
2019-03-11T00:19:07.951Z,5.40
2019-03-11T00:21:31.795Z,5.50
2019-03-11T00:23:38.931Z,5.60
2019-03-11T00:25:43.453Z,5.70
2019-03-11T00:27:48.035Z,5.70
2019-03-11T00:29:53.198Z,5.70
2019-03-11T00:32:01.989Z,5.70
2019-03-11T00:34:11.894Z,5.70
2019-03-11T00:36:16.280Z,5.70
2019-03-11T00:38:20.789Z,5.70
2019-03-11T00:40:25.250Z,5.60
2019-03-11T00:42:32.386Z,5.50
2019-03-11T00:44:55.925Z,5.60
2019-03-11T00:47:00.265Z,5.50
2019-03-11T00:49:04.661Z,5.50
2019-03-11T00:51:11.206Z,5.40
2019-03-11T00:53:15.930Z,5.30
2019-03-11T00:55:20.569Z,5.20
2019-03-11T00:57:28.292Z,5.10
2019-03-11T00:59:35.407Z,5.10
2019-03-11T01:01:39.933Z,5.00
2019-03-11T01:03:44.377Z,5.00
2019-03-11T01:05:51.782Z,4.90
2019-03-11T01:07:57.088Z,4.90
2019-03-11T01:10:12.589Z,4.90
2019-03-11T01:12:29.619Z,4.90
2019-03-11T01:14:35.868Z,4.90
2019-03-11T01:16:42.576Z,4.80
2019-03-11T01:19:06.183Z,4.80
2019-03-11T01:21:10.970Z,4.80
2019-03-11T01:23:16.156Z,4.70
2019-03-11T01:25:20.553Z,4.80
2019-03-11T01:27:25.120Z,4.80
2019-03-11T01:29:29.970Z,4.90
2019-03-11T01:31:34.333Z,4.90
2019-03-11T01:33:38.794Z,4.90
2019-03-11T01:35:45.199Z,4.90
2019-03-11T01:37:51.081Z,4.90
2019-03-11T01:40:00.616Z,4.90
2019-03-11T01:42:05.002Z,4.90
2019-03-11T01:44:09.331Z,4.90
2019-03-11T01:46:14.623Z,4.90
2019-03-11T01:51:12.806Z,4.80
2019-03-11T01:53:36.231Z,4.70
2019-03-11T01:55:42.825Z,4.80
2019-03-11T01:57:47.252Z,4.80
2019-03-11T01:59:51.689Z,4.80
2019-03-11T02:01:56.015Z,4.80
2019-03-11T02:04:02.133Z,4.80
2019-03-11T02:06:06.591Z,4.80
2019-03-11T02:08:11.022Z,4.80
2019-03-11T02:12:50.288Z,4.80
2019-03-11T02:14:54.971Z,4.70
2019-03-11T02:16:59.479Z,4.70
2019-03-11T02:19:04.441Z,4.70
2019-03-11T02:23:37.208Z,4.70
2019-03-11T02:25:55.875Z,4.70
2019-03-11T02:27:47.800Z,4.60
2019-03-11T02:29:52.431Z,4.70
2019-03-11T02:31:57.176Z,4.70
2019-03-11T02:34:01.643Z,4.70
2019-03-11T02:36:06.120Z,4.70
2019-03-11T02:38:10.718Z,4.60
2019-03-11T02:40:15.355Z,4.70
2019-03-11T02:42:21.088Z,4.70
2019-03-11T02:44:25.472Z,4.60
2019-03-11T02:46:48.919Z,4.60
2019-03-11T02:49:13.947Z,4.50
2019-03-11T02:51:18.855Z,4.40
2019-03-11T02:53:23.641Z,4.40
2019-03-11T02:55:28.119Z,4.40
2019-03-11T02:57:32.528Z,4.40
2019-03-11T02:59:56.018Z,4.40
2019-03-11T03:04:42.744Z,4.40
2019-03-11T03:06:47.217Z,4.40
2019-03-11T03:08:51.545Z,4.40
2019-03-11T03:11:15.904Z,4.40
2019-03-11T03:13:21.135Z,4.30
2019-03-11T03:15:25.565Z,4.30
2019-03-11T03:17:30.072Z,4.30
2019-03-11T03:19:34.434Z,4.40
2019-03-11T03:21:38.897Z,4.40
2019-03-11T03:23:43.296Z,4.30
2019-03-11T03:25:47.727Z,4.30
2019-03-11T03:27:54.620Z,4.40
2019-03-11T03:29:59.575Z,4.40
2019-03-11T03:32:23.067Z,4.30
2019-03-11T03:34:27.533Z,4.30
2019-03-11T03:36:31.923Z,4.40
2019-03-11T03:38:36.804Z,4.40
2019-03-11T03:40:41.229Z,4.40
2019-03-11T03:43:04.915Z,4.50
2019-03-11T03:45:29.673Z,4.60
2019-03-11T03:47:34.686Z,4.60
2019-03-11T03:49:39.183Z,4.60
2019-03-11T03:51:44.542Z,4.60
2019-03-11T03:53:49.829Z,4.70
2019-03-11T03:55:54.308Z,4.70
2019-03-11T03:57:58.825Z,4.70
2019-03-11T04:00:26.038Z,4.70
2019-03-11T04:02:52.044Z,4.70
2019-03-11T04:04:56.576Z,4.70
2019-03-11T04:07:00.993Z,4.70
2019-03-11T04:09:26.272Z,4.70
2019-03-11T04:11:30.702Z,4.70
2019-03-11T04:13:39.974Z,4.70
2019-03-11T04:15:49.547Z,4.60
2019-03-11T04:17:54.051Z,4.60
2019-03-11T04:19:58.592Z,4.50
2019-03-11T04:22:03.987Z,4.50
2019-03-11T04:24:27.693Z,4.60
2019-03-11T04:26:54.207Z,4.50
2019-03-11T04:28:58.964Z,4.50
2019-03-11T04:31:22.396Z,4.50
2019-03-11T04:33:48.828Z,4.60
2019-03-11T04:36:14.437Z,4.60
2019-03-11T04:38:20.994Z,4.70
2019-03-11T04:40:26.664Z,4.70
2019-03-11T04:42:31.117Z,4.70
2019-03-11T04:44:38.455Z,4.60
2019-03-11T04:46:44.555Z,4.60
2019-03-11T04:48:51.984Z,4.70
2019-03-11T04:50:56.385Z,4.70
2019-03-11T04:53:02.156Z,4.60
2019-03-11T04:55:07.071Z,4.50
2019-03-11T04:57:11.552Z,4.40
2019-03-11T04:59:15.931Z,4.30
2019-03-11T05:01:21.592Z,4.20
2019-03-11T05:08:40.409Z,4.10
2019-03-11T05:10:44.849Z,4.00
2019-03-11T05:12:49.328Z,4.00
2019-03-11T05:15:04.417Z,3.90
2019-03-11T05:17:09.819Z,3.90
2019-03-11T05:19:33.319Z,3.90
2019-03-11T05:24:01.735Z,4.00
2019-03-11T05:26:06.149Z,4.00
2019-03-11T05:28:10.981Z,3.90
2019-03-11T05:30:16.652Z,4.00
2019-03-11T05:32:22.781Z,4.00
2019-03-11T05:35:05.404Z,4.00
2019-03-11T05:39:55.677Z,4.10
2019-03-11T05:42:01.238Z,4.10
2019-03-11T05:46:35.017Z,4.20
2019-03-11T05:48:40.972Z,4.10
2019-03-11T05:50:45.744Z,4.20
2019-03-11T05:52:50.169Z,4.20
2019-03-11T05:54:54.863Z,4.30
2019-03-11T05:56:59.260Z,4.30
2019-03-11T05:59:03.985Z,4.30
2019-03-11T06:01:08.451Z,4.30
2019-03-11T06:03:12.883Z,4.20
2019-03-11T06:05:37.540Z,4.20
2019-03-11T06:07:42.646Z,4.20
2019-03-11T06:09:50.716Z,4.20
2019-03-11T06:11:58.008Z,4.20
2019-03-11T06:14:03.441Z,4.20
2019-03-11T06:16:08.826Z,4.20
2019-03-11T06:21:11.883Z,4.20
2019-03-11T06:23:16.262Z,4.20
2019-03-11T06:25:20.721Z,4.00
2019-03-11T06:27:25.238Z,4.00
2019-03-11T06:29:48.708Z,4.00
2019-03-11T06:31:53.127Z,4.00
2019-03-11T06:33:59.075Z,4.00
2019-03-11T06:36:03.510Z,4.00
2019-03-11T06:38:07.986Z,3.90
2019-03-11T06:40:15.367Z,3.80
2019-03-11T06:42:19.805Z,3.70
2019-03-11T06:44:24.255Z,3.60
2019-03-11T06:46:28.699Z,3.50
2019-03-11T06:48:33.063Z,3.40
2019-03-11T06:50:37.443Z,3.40
2019-03-11T06:52:48.906Z,3.40
2019-03-11T06:54:56.276Z,3.30
2019-03-11T06:57:00.752Z,3.30
2019-03-11T06:59:06.897Z,3.20
2019-03-11T07:01:11.468Z,3.20
2019-03-11T07:03:15.902Z,3.20
2019-03-11T07:05:21.221Z,3.20
2019-03-11T07:07:31.364Z,3.20
2019-03-11T07:09:36.439Z,3.10
2019-03-11T07:11:40.808Z,3.10
2019-03-11T07:13:45.181Z,3.10
2019-03-11T07:15:49.746Z,3.10
2019-03-11T07:20:27.409Z,3.30
2019-03-11T07:22:32.802Z,3.30
2019-03-11T07:24:37.229Z,3.40
2019-03-11T07:26:45.276Z,3.50
2019-03-11T07:31:13.204Z,3.60
2019-03-11T07:33:29.652Z,3.60
2019-03-11T07:35:35.744Z,3.60
2019-03-11T07:40:10.449Z,3.70
2019-03-11T07:42:19.192Z,3.70
2019-03-11T07:44:43.062Z,3.80
2019-03-11T07:46:48.621Z,3.90
2019-03-11T07:48:53.016Z,3.90
2019-03-11T07:51:17.233Z,3.90
2019-03-11T07:53:21.926Z,4.00
2019-03-11T07:55:26.382Z,4.00
2019-03-11T07:57:30.844Z,3.90
2019-03-11T07:59:35.318Z,3.90
2019-03-11T08:01:58.971Z,3.90
2019-03-11T08:04:03.547Z,3.90
2019-03-11T08:06:18.656Z,4.00
2019-03-11T08:10:23.889Z,3.90
2019-03-11T08:12:28.347Z,3.90
2019-03-11T08:14:35.697Z,4.00
2019-03-11T08:16:59.173Z,4.00
2019-03-11T08:19:04.472Z,3.90
2019-03-11T08:23:45.770Z,3.90
2019-03-11T08:26:02.107Z,3.90
2019-03-11T08:28:07.702Z,4.00
2019-03-11T08:30:12.544Z,4.00
2019-03-11T08:32:18.900Z,4.00
2019-03-11T08:34:42.225Z,4.10
2019-03-11T08:36:47.283Z,4.20
2019-03-11T08:38:51.706Z,4.20
2019-03-11T08:40:56.308Z,4.30
2019-03-11T08:43:00.876Z,4.20
2019-03-11T08:45:06.589Z,4.20
2019-03-11T08:47:11.194Z,4.30
2019-03-11T08:49:34.694Z,4.20
2019-03-11T08:51:40.957Z,4.30
2019-03-11T08:53:45.480Z,4.40
2019-03-11T08:55:49.937Z,4.50
2019-03-11T08:58:13.580Z,4.60
2019-03-11T09:00:29.744Z,4.60
2019-03-11T09:02:38.137Z,4.80
2019-03-11T09:04:42.864Z,4.80
2019-03-11T09:06:47.360Z,4.70
2019-03-11T09:08:51.801Z,4.80
2019-03-11T09:10:56.381Z,4.80
2019-03-11T09:13:00.930Z,4.80
2019-03-11T09:15:07.105Z,4.70
2019-03-11T09:17:11.785Z,4.70
2019-03-11T09:19:16.243Z,4.70
2019-03-11T09:21:21.195Z,4.60
2019-03-11T09:23:45.179Z,4.60
2019-03-11T09:25:52.703Z,4.60
2019-03-11T09:30:58.553Z,4.60
2019-03-11T09:33:03.239Z,4.70
2019-03-11T09:35:09.799Z,4.90
2019-03-11T09:37:14.240Z,5.00
2019-03-11T09:39:21.266Z,4.90
2019-03-11T09:41:26.005Z,5.10
2019-03-11T09:43:31.796Z,5.10
2019-03-11T09:45:38.748Z,5.20
2019-03-11T09:48:03.483Z,5.40
2019-03-11T09:50:19.210Z,5.50
2019-03-11T09:52:23.720Z,5.40
2019-03-11T09:54:31.168Z,5.50
2019-03-11T09:56:43.700Z,5.60
2019-03-11T09:58:47.401Z,5.60
2019-03-11T10:00:52.526Z,5.60
2019-03-11T10:02:57.569Z,5.70
2019-03-11T10:05:13.482Z,5.60
2019-03-11T10:07:18.125Z,5.60
2019-03-11T10:09:23.824Z,5.70
2019-03-11T10:11:28.391Z,5.80
2019-03-11T10:13:33.804Z,5.90
2019-03-11T10:15:38.317Z,5.90
2019-03-11T10:17:42.708Z,6.00
2019-03-11T10:19:48.446Z,6.10
2019-03-11T10:21:57.305Z,6.00
2019-03-11T10:24:02.236Z,6.10
2019-03-11T10:26:06.704Z,6.20
2019-03-11T10:28:11.913Z,6.40
2019-03-11T10:30:17.209Z,6.30
2019-03-11T10:32:25.949Z,6.30
2019-03-11T10:34:31.291Z,6.50
2019-03-11T10:36:39.726Z,6.50
2019-03-11T10:38:44.251Z,6.50
2019-03-11T10:40:51.014Z,6.40
2019-03-11T10:42:56.082Z,6.50
2019-03-11T10:45:30.578Z,6.40
2019-03-11T10:47:32.716Z,6.40
2019-03-11T10:49:37.792Z,6.30
2019-03-11T10:51:45.031Z,6.40
2019-03-11T10:53:50.960Z,6.50
2019-03-11T10:56:14.932Z,6.60
2019-03-11T10:58:21.556Z,6.50
2019-03-11T11:00:36.061Z,6.60
2019-03-11T11:02:41.440Z,6.70
2019-03-11T11:04:48.060Z,6.80
2019-03-11T11:07:11.727Z,6.70
2019-03-11T11:11:55.520Z,6.60
2019-03-11T11:14:01.774Z,6.80
2019-03-11T11:16:06.305Z,6.80
2019-03-11T11:18:13.906Z,6.90
2019-03-11T11:23:10.313Z,7.00
2019-03-11T11:25:17.505Z,6.90
2019-03-11T11:30:18.252Z,7.00
2019-03-11T11:32:45.740Z,7.00
2019-03-11T11:34:53.195Z,6.80
2019-03-11T11:39:34.173Z,6.90
2019-03-11T11:41:43.073Z,7.10
2019-03-11T11:43:54.781Z,7.00
2019-03-11T11:46:02.669Z,7.10
2019-03-11T11:48:10.254Z,7.40
2019-03-11T11:50:33.939Z,7.50
2019-03-11T11:52:41.433Z,7.60
2019-03-11T11:54:46.269Z,7.70
2019-03-11T11:56:50.656Z,7.80
2019-03-11T11:58:56.491Z,7.90
2019-03-11T12:01:03.410Z,7.70
2019-03-11T12:03:08.223Z,7.50
2019-03-11T12:05:13.747Z,7.60
2019-03-11T12:07:18.168Z,7.60
2019-03-11T12:09:22.557Z,7.70
2019-03-11T12:11:28.608Z,7.80
2019-03-11T12:13:54.117Z,7.60
2019-03-11T12:16:19.911Z,7.50
2019-03-11T12:18:24.517Z,7.60
2019-03-11T12:20:31.479Z,7.70
2019-03-11T12:22:39.816Z,7.80
2019-03-11T12:25:03.627Z,7.80
2019-03-11T12:27:08.522Z,7.90
2019-03-11T12:29:16.682Z,8.10
2019-03-11T12:31:41.147Z,8.00
2019-03-11T12:33:47.000Z,7.80
2019-03-11T12:35:55.281Z,7.70
2019-03-11T12:37:59.534Z,7.80
2019-03-11T12:40:06.136Z,7.70
2019-03-11T12:42:10.605Z,7.60
2019-03-11T12:44:36.372Z,7.60
2019-03-11T12:46:41.305Z,7.70
2019-03-11T12:48:46.508Z,7.90
2019-03-11T12:50:52.022Z,7.80
2019-03-11T12:52:57.866Z,7.70
2019-03-11T12:55:02.455Z,7.70
2019-03-11T12:57:07.896Z,7.70
2019-03-11T12:59:14.011Z,7.80
2019-03-11T13:01:18.353Z,7.80
2019-03-11T13:03:23.033Z,8.00
2019-03-11T13:05:28.784Z,7.90
2019-03-11T13:07:52.382Z,7.80
2019-03-11T13:14:19.172Z,7.40
2019-03-11T13:16:23.850Z,7.30
2019-03-11T13:18:56.258Z,7.30
2019-03-11T13:21:03.302Z,7.40
2019-03-11T13:23:08.145Z,7.70
2019-03-11T13:25:12.500Z,7.80
2019-03-11T13:27:17.110Z,8.00
2019-03-11T13:29:24.555Z,7.90
2019-03-11T13:33:54.335Z,7.70
2019-03-11T13:35:59.279Z,7.60
2019-03-11T13:38:27.661Z,7.70
2019-03-11T13:40:40.884Z,7.80
2019-03-11T13:42:47.520Z,7.90
2019-03-11T13:44:52.839Z,8.00
2019-03-11T13:46:58.122Z,8.20
2019-03-11T13:49:07.551Z,8.10
2019-03-11T13:51:13.215Z,8.10
2019-03-11T13:53:21.881Z,8.10
2019-03-11T13:57:53.888Z,8.20
2019-03-11T13:59:58.688Z,8.20
2019-03-11T14:02:03.439Z,8.20
2019-03-11T14:04:30.483Z,8.00
2019-03-11T14:06:35.213Z,8.00
2019-03-11T14:11:12.325Z,8.00
2019-03-11T14:13:17.591Z,8.00
2019-03-11T14:15:42.556Z,7.90
2019-03-11T14:20:16.581Z,7.90
2019-03-11T14:22:21.064Z,7.90
2019-03-11T14:24:27.185Z,8.10
2019-03-11T14:26:31.640Z,8.10
2019-03-11T14:28:36.377Z,8.10
2019-03-11T14:30:43.323Z,8.00
2019-03-11T14:32:49.052Z,7.90
2019-03-11T14:34:54.428Z,8.00
2019-03-11T14:39:28.881Z,8.00
2019-03-11T14:41:53.750Z,8.10
2019-03-11T14:43:58.705Z,8.30
2019-03-11T14:46:03.482Z,8.10
2019-03-11T14:48:09.318Z,8.20
2019-03-11T14:50:14.549Z,8.20
2019-03-11T14:52:19.029Z,8.20
2019-03-11T14:54:23.543Z,8.10
2019-03-11T14:56:27.922Z,8.00
2019-03-11T14:58:32.429Z,8.10
2019-03-11T15:00:38.356Z,8.00
2019-03-11T15:02:43.679Z,8.00
2019-03-11T15:04:52.197Z,8.00
2019-03-11T15:07:15.705Z,8.00
2019-03-11T15:09:20.230Z,7.90
2019-03-11T15:11:25.339Z,7.90
2019-03-11T15:13:29.848Z,7.80
2019-03-11T15:15:56.531Z,7.90
2019-03-11T15:18:20.118Z,7.90
2019-03-11T15:20:25.547Z,7.80
2019-03-11T15:22:30.439Z,7.70
2019-03-11T15:24:38.405Z,7.80
2019-03-11T15:27:03.624Z,7.60
2019-03-11T15:29:21.800Z,7.50
2019-03-11T15:31:34.304Z,7.30
2019-03-11T15:33:40.149Z,7.20
2019-03-11T15:35:45.586Z,7.00
2019-03-11T15:37:50.384Z,6.90
2019-03-11T15:39:54.824Z,6.70
2019-03-11T15:41:59.657Z,6.80
2019-03-11T15:44:07.447Z,6.70
2019-03-11T15:46:13.595Z,6.70
2019-03-11T15:48:19.523Z,6.80
2019-03-11T15:50:25.598Z,6.90
2019-03-11T15:52:34.863Z,7.00
2019-03-11T15:54:44.807Z,7.00
2019-03-11T15:59:22.863Z,7.40
2019-03-11T16:01:48.946Z,7.60
2019-03-11T16:03:55.994Z,7.80
2019-03-11T16:06:20.479Z,8.00
2019-03-11T16:08:45.680Z,7.90
2019-03-11T16:11:30.281Z,8.00
2019-03-11T16:13:53.954Z,8.00
2019-03-11T16:16:09.964Z,8.00
2019-03-11T16:18:16.916Z,8.10
2019-03-11T16:20:21.638Z,8.00
2019-03-11T16:24:54.115Z,8.10
2019-03-11T16:26:59.039Z,8.10
2019-03-11T16:29:03.461Z,8.10
2019-03-11T16:31:08.060Z,8.00
2019-03-11T16:33:20.303Z,8.00
2019-03-11T16:35:26.436Z,7.90
2019-03-11T16:37:32.198Z,8.00
2019-03-11T16:39:36.723Z,7.90
2019-03-11T16:41:41.282Z,7.80
2019-03-11T16:43:46.388Z,7.70
2019-03-11T16:45:53.156Z,7.70
2019-03-11T16:47:57.842Z,7.70
2019-03-11T16:50:02.463Z,7.70
2019-03-11T16:52:08.841Z,7.60
2019-03-11T16:54:13.297Z,7.60
2019-03-11T16:56:37.100Z,7.60
2019-03-11T17:01:27.888Z,7.50
2019-03-11T17:03:37.713Z,7.60
2019-03-11T17:06:01.841Z,7.60
2019-03-11T17:08:06.379Z,7.50
2019-03-11T17:10:12.223Z,7.50
2019-03-11T17:12:17.100Z,7.50
2019-03-11T17:14:22.906Z,7.40
2019-03-11T17:16:27.423Z,7.50
2019-03-11T17:18:46.079Z,7.40
2019-03-11T17:20:51.535Z,7.40
2019-03-11T17:23:00.684Z,7.40
2019-03-11T17:25:11.005Z,7.30
2019-03-11T17:28:20.247Z,7.30
2019-03-11T17:30:02.098Z,7.30
2019-03-11T17:32:06.821Z,7.30
2019-03-11T17:34:12.983Z,7.40
2019-03-11T17:36:18.523Z,7.40
2019-03-11T17:38:36.914Z,7.30
2019-03-11T17:40:46.079Z,7.30
2019-03-11T17:45:32.466Z,7.30
2019-03-11T17:47:44.548Z,7.30
2019-03-11T17:49:50.150Z,7.20
2019-03-11T17:51:56.796Z,7.20
2019-03-11T17:54:01.517Z,7.20
2019-03-11T17:56:08.239Z,7.10
2019-03-11T17:58:18.141Z,7.10
2019-03-11T18:00:26.276Z,7.10
2019-03-11T18:02:31.948Z,7.10
2019-03-11T18:04:38.335Z,7.10
2019-03-11T18:06:45.489Z,7.00
2019-03-11T18:08:52.432Z,7.10
2019-03-11T18:11:16.618Z,7.10
2019-03-11T18:13:22.658Z,7.00
2019-03-11T18:15:58.128Z,7.10
2019-03-11T18:18:03.501Z,7.00
2019-03-11T18:20:08.893Z,7.00
2019-03-11T18:22:32.599Z,7.10
2019-03-11T18:24:38.402Z,7.00
2019-03-11T18:26:43.645Z,6.90
2019-03-11T18:28:52.562Z,7.00
2019-03-11T18:30:59.436Z,7.00
2019-03-11T18:33:04.701Z,7.00
2019-03-11T18:37:38.500Z,7.00
2019-03-11T18:39:46.184Z,6.90
2019-03-11T18:44:38.800Z,7.00
2019-03-11T18:49:40.700Z,7.00
2019-03-11T18:51:48.392Z,7.00
2019-03-11T18:53:58.814Z,6.90
2019-03-11T18:56:07.262Z,7.00
2019-03-11T19:01:06.327Z,7.00
2019-03-11T19:03:14.314Z,7.00
2019-03-11T19:05:21.586Z,6.90
2019-03-11T19:07:28.253Z,6.80
2019-03-11T19:09:33.281Z,6.70
2019-03-11T19:11:39.635Z,6.70
2019-03-11T19:13:45.503Z,6.70
2019-03-11T19:15:50.722Z,6.70
2019-03-11T19:17:55.815Z,6.80
2019-03-11T19:20:01.128Z,6.80
2019-03-11T19:22:09.367Z,6.80
2019-03-11T19:24:35.970Z,6.80
2019-03-11T19:26:55.592Z,6.90
2019-03-11T19:29:19.709Z,6.90
2019-03-11T19:31:27.321Z,6.80
2019-03-11T19:33:51.817Z,6.80
2019-03-11T19:35:57.585Z,6.70
2019-03-11T19:40:39.419Z,6.60
2019-03-11T19:43:04.250Z,6.70
2019-03-11T19:45:11.418Z,6.70
2019-03-11T19:49:54.206Z,6.70
2019-03-11T19:52:01.310Z,6.60
2019-03-11T19:56:37.233Z,6.70
2019-03-11T20:01:30.235Z,6.70
2019-03-11T20:03:35.265Z,6.70
2019-03-11T20:05:40.809Z,6.70
2019-03-11T20:07:48.397Z,6.70
2019-03-11T20:10:22.608Z,6.60
2019-03-11T20:15:08.960Z,6.60
2019-03-11T20:17:18.601Z,6.50
2019-03-11T20:19:26.349Z,6.50
2019-03-11T20:21:44.677Z,6.50
2019-03-11T20:24:06.478Z,6.50
2019-03-11T20:26:08.894Z,6.60
2019-03-11T20:28:36.081Z,6.60
2019-03-11T20:31:05.279Z,6.50
2019-03-11T20:36:21.322Z,6.50
2019-03-11T20:38:36.074Z,6.50
2019-03-11T20:40:54.664Z,6.50
2019-03-11T20:45:27.123Z,6.50
2019-03-11T20:48:16.357Z,6.30
2019-03-11T20:51:01.371Z,6.20
2019-03-11T20:53:53.702Z,6.20
2019-03-11T20:59:17.385Z,6.10
2019-03-11T21:01:32.364Z,6.00
2019-03-11T21:11:54.743Z,6.00
2019-03-11T21:16:29.320Z,6.00
2019-03-11T21:27:13.026Z,5.70
2019-03-11T21:29:20.738Z,5.70
2019-03-11T21:31:26.712Z,5.70
2019-03-11T21:41:42.611Z,5.60
2019-03-11T21:43:53.379Z,5.60
2019-03-11T21:46:07.310Z,5.60
2019-03-11T21:48:28.175Z,5.60
2019-03-11T21:50:47.471Z,5.60
2019-03-11T21:52:52.682Z,5.60
2019-03-11T21:55:19.050Z,5.60
2019-03-11T21:57:35.831Z,5.30
2019-03-11T22:02:14.298Z,5.30
2019-03-11T22:04:20.931Z,5.40
2019-03-11T22:06:26.129Z,5.40
2019-03-11T22:08:51.937Z,5.40
2019-03-11T22:11:12.598Z,5.50
2019-03-11T22:13:37.990Z,5.50
2019-03-11T22:15:43.825Z,5.40
2019-03-11T22:18:11.357Z,5.40
2019-03-11T22:20:15.977Z,5.50
2019-03-11T22:22:21.711Z,5.40
2019-03-11T22:24:47.526Z,5.30
2019-03-11T22:26:52.509Z,5.30
2019-03-11T22:28:57.491Z,5.50
2019-03-11T22:31:21.757Z,5.40
2019-03-11T22:33:29.512Z,5.30
2019-03-11T22:35:37.056Z,5.30
2019-03-11T22:37:41.826Z,5.40
2019-03-11T22:39:47.629Z,5.40
2019-03-11T22:41:53.290Z,5.30
2019-03-11T22:43:57.724Z,5.30
2019-03-11T22:46:02.630Z,5.20
2019-03-11T22:48:07.174Z,5.10
2019-03-11T22:50:12.174Z,5.10
2019-03-11T22:52:22.858Z,5.20
2019-03-11T22:54:27.391Z,5.20
2019-03-11T22:56:33.542Z,5.10
2019-03-11T22:58:38.403Z,5.10
2019-03-11T23:01:06.254Z,5.00
2019-03-11T23:03:11.702Z,5.10
2019-03-11T23:05:35.284Z,5.10
2019-03-11T23:07:39.770Z,5.10
2019-03-11T23:09:44.313Z,5.00
2019-03-11T23:11:53.094Z,5.00
2019-03-11T23:13:57.641Z,4.90
2019-03-11T23:16:02.141Z,4.90
2019-03-11T23:20:37.621Z,5.00
2019-03-11T23:23:50.047Z,4.90
2019-03-11T23:27:13.154Z,4.80
2019-03-11T23:29:18.047Z,4.70
2019-03-11T23:31:42.920Z,4.60
2019-03-11T23:33:47.445Z,4.70
2019-03-11T23:36:10.863Z,4.70
2019-03-11T23:38:19.690Z,4.70
2019-03-11T23:40:26.149Z,4.70
2019-03-11T23:42:31.612Z,4.70
2019-03-11T23:44:56.369Z,4.60
2019-03-11T23:47:01.039Z,4.70
2019-03-11T23:51:38.848Z,4.70
2019-03-11T23:53:43.388Z,4.70
2019-03-11T23:55:50.981Z,4.60
2019-03-11T23:57:55.458Z,4.50
